Wetterdaten: Woche 13.09.10 - 19.09.10 (KW37)
Datum Zeit Temperatur Luftfeuchte Luftdruck Niederschlag Windrichtung Sonnenschein Solar Wind
13.09.2010 00:00 13,1 C 95 % 1019,2 hPa 4,8 l/m W-NW 0,00 h 0 W/m 18,6 km/h (3 Bft)
13.09.2010 01:00 12,6 C 96 % 1019,9 hPa 1,0 l/m W-SW 0,00 h 0 W/m 11,7 km/h (2 Bft)
13.09.2010 02:00 12,1 C 96 % 1020,5 hPa 0,4 l/m W 0,00 h 0 W/m 14,8 km/h (3 Bft)
13.09.2010 03:00 11,7 C 96 % 1020,7 hPa 0,0 l/m W 0,00 h 0 W/m 11,5 km/h (2 Bft)
13.09.2010 04:00 11,6 C 96 % 1020,8 hPa 0,0 l/m W 0,00 h 0 W/m 8,7 km/h (2 Bft)
13.09.2010 05:00 11,6 C 96 % 1020,9 hPa 0,0 l/m W-SW 0,00 h 0 W/m 8,2 km/h (2 Bft)
13.09.2010 06:00 11,6 C 96 % 1021,4 hPa 0,0 l/m W-SW 0,00 h 0 W/m 6,4 km/h (2 Bft)
13.09.2010 07:00 11,6 C 96 % 1022,1 hPa 0,0 l/m W 0,00 h 13 W/m 9,1 km/h (2 Bft)
13.09.2010 08:00 11,7 C 95 % 1022,4 hPa 0,0 l/m W 0,00 h 41 W/m 10,5 km/h (2 Bft)
13.09.2010 09:00 11,8 C 96 % 1023,0 hPa 0,4 l/m NW 0,00 h 75 W/m 11,0 km/h (2 Bft)
13.09.2010 10:00 12,2 C 94 % 1023,9 hPa 0,0 l/m NW 0,00 h 121 W/m 7,9 km/h (2 Bft)
13.09.2010 11:00 12,7 C 91 % 1024,2 hPa 0,2 l/m N 0,00 h 254 W/m 14,4 km/h (3 Bft)
13.09.2010 12:00 13,8 C 83 % 1024,3 hPa 0,0 l/m N-NW 0,33 h 389 W/m 13,2 km/h (3 Bft)
13.09.2010 13:00 15,1 C 74 % 1024,2 hPa 0,0 l/m N-NO 0,83 h 468 W/m 13,4 km/h (3 Bft)
13.09.2010 14:00 14,7 C 74 % 1024,4 hPa 0,0 l/m NO 0,00 h 127 W/m 9,5 km/h (2 Bft)
13.09.2010 15:00 13,3 C 78 % 1024,9 hPa 0,0 l/m NW 0,00 h 36 W/m 7,8 km/h (2 Bft)
13.09.2010 16:00 12,8 C 86 % 1025,1 hPa 0,0 l/m N 0,00 h 43 W/m 2,3 km/h (1 Bft)
13.09.2010 17:00 12,8 C 86 % 1025,2 hPa 0,0 l/m N 0,00 h 75 W/m 1,1 km/h (0 Bft)
13.09.2010 18:00 13,1 C 85 % 1025,5 hPa 0,0 l/m SW 0,00 h 64 W/m 6,0 km/h (2 Bft)
13.09.2010 19:00 12,0 C 90 % 1025,6 hPa 0,0 l/m SW 0,00 h 16 W/m 5,6 km/h (1 Bft)
13.09.2010 20:00 11,0 C 93 % 1025,9 hPa 0,0 l/m S-SO 0,00 h 0 W/m 2,3 km/h (1 Bft)
13.09.2010 21:00 10,2 C 96 % 1026,3 hPa 0,0 l/m N 0,00 h 0 W/m 0,1 km/h (0 Bft)
13.09.2010 22:00 9,8 C 97 % 1026,7 hPa 0,0 l/m N 0,00 h 0 W/m 0,0 km/h (0 Bft)
13.09.2010 23:00 9,3 C 97 % 1026,8 hPa 0,0 l/m N 0,00 h 0 W/m 0,0 km/h (0 Bft)
14.09.2010 00:00 8,8 C 98 % 1026,5 hPa 0,0 l/m N 0,00 h 0 W/m 0,0 km/h (0 Bft)
14.09.2010 01:00 8,0 C 98 % 1026,2 hPa 0,0 l/m N 0,00 h 0 W/m 0,0 km/h (0 Bft)
14.09.2010 02:00 7,2 C 98 % 1026,0 hPa 0,0 l/m N 0,00 h 0 W/m 0,0 km/h (0 Bft)
14.09.2010 03:00 6,5 C 98 % 1025,8 hPa 0,0 l/m N 0,00 h 0 W/m 0,0 km/h (0 Bft)
14.09.2010 04:00 5,9 C 98 % 1025,5 hPa 0,0 l/m N 0,00 h 0 W/m 0,0 km/h (0 Bft)
14.09.2010 05:00 5,3 C 98 % 1025,5 hPa 0,0 l/m N 0,00 h 0 W/m 0,0 km/h (0 Bft)
14.09.2010 06:00 5,0 C 98 % 1025,6 hPa 0,0 l/m N 0,00 h 5 W/m 0,4 km/h (0 Bft)
14.09.2010 07:00 5,4 C 99 % 1025,8 hPa 0,0 l/m N 0,00 h 32 W/m 0,0 km/h (0 Bft)
14.09.2010 08:00 7,9 C 99 % 1025,9 hPa 0,0 l/m SW 0,08 h 95 W/m 4,3 km/h (1 Bft)
14.09.2010 09:00 9,7 C 99 % 1025,8 hPa 0,0 l/m SW 0,08 h 149 W/m 10,9 km/h (2 Bft)
14.09.2010 10:00 10,9 C 98 % 1025,9 hPa 0,0 l/m S-SW 0,00 h 131 W/m 9,8 km/h (2 Bft)
14.09.2010 11:00 12,2 C 95 % 1025,7 hPa 0,0 l/m S 0,17 h 248 W/m 11,4 km/h (2 Bft)
14.09.2010 12:00 14,5 C 86 % 1025,0 hPa 0,0 l/m SW 0,67 h 455 W/m 15,4 km/h (3 Bft)
14.09.2010 13:00 15,4 C 76 % 1024,4 hPa 0,0 l/m W-SW 0,33 h 343 W/m 18,2 km/h (3 Bft)
14.09.2010 14:00 15,7 C 71 % 1023,6 hPa 0,0 l/m W-SW 0,17 h 353 W/m 18,4 km/h (3 Bft)
14.09.2010 15:00 16,3 C 67 % 1022,8 hPa 0,0 l/m W-SW 0,92 h 437 W/m 19,7 km/h (3 Bft)
14.09.2010 16:00 17,1 C 64 % 1022,0 hPa 0,0 l/m W-SW 0,83 h 388 W/m 17,7 km/h (3 Bft)
14.09.2010 17:00 16,9 C 63 % 1021,5 hPa 0,0 l/m W-SW 0,83 h 212 W/m 13,6 km/h (3 Bft)
14.09.2010 18:00 15,8 C 69 % 1021,0 hPa 0,0 l/m SW 0,00 h 66 W/m 9,7 km/h (2 Bft)
14.09.2010 19:00 14,6 C 76 % 1020,7 hPa 0,0 l/m SW 0,00 h 20 W/m 5,7 km/h (1 Bft)
14.09.2010 20:00 13,6 C 82 % 1020,4 hPa 0,0 l/m SW 0,00 h 0 W/m 5,6 km/h (1 Bft)
14.09.2010 21:00 13,6 C 83 % 1020,3 hPa 0,0 l/m SW 0,00 h 0 W/m 7,0 km/h (2 Bft)
14.09.2010 22:00 13,3 C 86 % 1020,0 hPa 0,0 l/m SW 0,00 h 0 W/m 6,3 km/h (2 Bft)
14.09.2010 23:00 13,0 C 86 % 1019,7 hPa 0,0 l/m SW 0,00 h 0 W/m 9,3 km/h (2 Bft)
15.09.2010 00:00 12,5 C 88 % 1019,3 hPa 0,0 l/m S-SW 0,00 h 0 W/m 8,3 km/h (2 Bft)
15.09.2010 01:00 12,2 C 89 % 1018,7 hPa 0,0 l/m SW 0,00 h 0 W/m 8,3 km/h (2 Bft)
15.09.2010 02:00 12,0 C 89 % 1018,0 hPa 0,0 l/m SW 0,00 h 0 W/m 12,1 km/h (2 Bft)
15.09.2010 03:00 11,7 C 90 % 1017,3 hPa 0,0 l/m SW 0,00 h 0 W/m 12,2 km/h (2 Bft)
15.09.2010 04:00 11,1 C 91 % 1016,8 hPa 0,0 l/m SW 0,00 h 0 W/m 14,8 km/h (3 Bft)
15.09.2010 05:00 10,4 C 93 % 1016,1 hPa 0,0 l/m SW 0,00 h 0 W/m 11,0 km/h (2 Bft)
15.09.2010 06:00 10,3 C 94 % 1015,7 hPa 0,0 l/m SW 0,00 h 0 W/m 8,6 km/h (2 Bft)
15.09.2010 07:00 10,8 C 92 % 1015,4 hPa 0,0 l/m SW 0,00 h 30 W/m 13,7 km/h (3 Bft)
15.09.2010 08:00 12,2 C 87 % 1015,3 hPa 0,0 l/m SW 0,17 h 119 W/m 16,1 km/h (3 Bft)
15.09.2010 09:00 13,8 C 82 % 1015,5 hPa 0,0 l/m W-SW 0,58 h 223 W/m 23,1 km/h (4 Bft)
15.09.2010 10:00 15,4 C 74 % 1015,3 hPa 0,0 l/m W-SW 1,00 h 372 W/m 31,9 km/h (5 Bft)
15.09.2010 11:00 15,6 C 72 % 1015,0 hPa 0,0 l/m W-SW 0,25 h 271 W/m 29,3 km/h (5 Bft)
15.09.2010 12:00 16,5 C 70 % 1014,4 hPa 0,0 l/m SW 0,25 h 329 W/m 27,4 km/h (4 Bft)
15.09.2010 13:00 16,5 C 69 % 1013,9 hPa 0,0 l/m SW 0,00 h 221 W/m 21,6 km/h (4 Bft)
15.09.2010 14:00 16,2 C 69 % 1013,3 hPa 0,0 l/m SW 0,00 h 144 W/m 23,4 km/h (4 Bft)
15.09.2010 15:00 15,7 C 68 % 1012,9 hPa 0,0 l/m SW 0,00 h 113 W/m 20,6 km/h (4 Bft)
15.09.2010 16:00 15,2 C 66 % 1012,5 hPa 0,0 l/m W-SW 0,00 h 46 W/m 16,2 km/h (3 Bft)
15.09.2010 17:00 14,3 C 77 % 1012,3 hPa 0,2 l/m W-SW 0,00 h 47 W/m 10,1 km/h (2 Bft)
15.09.2010 18:00 14,1 C 82 % 1011,8 hPa 0,0 l/m SW 0,00 h 25 W/m 7,2 km/h (2 Bft)
15.09.2010 19:00 14,6 C 75 % 1011,4 hPa 0,0 l/m W 0,00 h 8 W/m 14,4 km/h (3 Bft)
15.09.2010 20:00 14,0 C 78 % 1011,8 hPa 0,0 l/m SW 0,00 h 0 W/m 10,5 km/h (2 Bft)
15.09.2010 21:00 13,5 C 82 % 1011,9 hPa 0,0 l/m W 0,00 h 0 W/m 18,6 km/h (3 Bft)
15.09.2010 22:00 12,9 C 89 % 1012,2 hPa 0,0 l/m SW 0,00 h 0 W/m 9,8 km/h (2 Bft)
15.09.2010 23:00 12,3 C 94 % 1012,0 hPa 0,4 l/m SW 0,00 h 0 W/m 7,2 km/h (2 Bft)
16.09.2010 00:00 12,3 C 96 % 1011,8 hPa 0,2 l/m SW 0,00 h 0 W/m 9,1 km/h (2 Bft)
16.09.2010 01:00 12,1 C 97 % 1011,8 hPa 0,4 l/m SW 0,00 h 0 W/m 11,6 km/h (2 Bft)
16.09.2010 02:00 12,4 C 97 % 1011,5 hPa 0,2 l/m W-SW 0,00 h 0 W/m 15,8 km/h (3 Bft)
16.09.2010 03:00 12,3 C 96 % 1011,1 hPa 0,0 l/m SW 0,00 h 0 W/m 12,2 km/h (2 Bft)
16.09.2010 04:00 12,2 C 95 % 1011,0 hPa 0,0 l/m SW 0,00 h 0 W/m 14,4 km/h (3 Bft)
16.09.2010 05:00 12,1 C 94 % 1011,1 hPa 0,0 l/m SW 0,00 h 0 W/m 13,4 km/h (3 Bft)
16.09.2010 06:00 11,8 C 95 % 1011,4 hPa 0,0 l/m SW 0,00 h 5 W/m 11,6 km/h (2 Bft)
16.09.2010 07:00 11,5 C 95 % 1011,8 hPa 0,0 l/m W-SW 0,08 h 36 W/m 11,8 km/h (2 Bft)
16.09.2010 08:00 12,0 C 95 % 1012,2 hPa 0,0 l/m SW 0,00 h 94 W/m 10,2 km/h (2 Bft)
16.09.2010 09:00 12,7 C 89 % 1012,5 hPa 0,0 l/m N-NW 0,17 h 187 W/m 11,0 km/h (2 Bft)
16.09.2010 10:00 13,0 C 79 % 1012,8 hPa 0,0 l/m NW 0,33 h 262 W/m 11,9 km/h (2 Bft)
16.09.2010 11:00 13,8 C 73 % 1012,8 hPa 0,0 l/m W 0,33 h 279 W/m 11,6 km/h (2 Bft)
16.09.2010 12:00 14,0 C 73 % 1012,5 hPa 0,0 l/m W-NW 0,42 h 340 W/m 9,5 km/h (2 Bft)
16.09.2010 13:00 14,8 C 71 % 1012,2 hPa 0,0 l/m SW 0,08 h 280 W/m 10,1 km/h (2 Bft)
16.09.2010 14:00 14,9 C 80 % 1011,7 hPa 0,0 l/m SW 0,08 h 326 W/m 16,0 km/h (3 Bft)
16.09.2010 15:00 15,3 C 81 % 1011,2 hPa 0,0 l/m S-SW 0,58 h 372 W/m 18,4 km/h (3 Bft)
16.09.2010 16:00 15,4 C 78 % 1010,8 hPa 0,0 l/m W-SW 0,42 h 257 W/m 18,0 km/h (3 Bft)
16.09.2010 17:00 14,7 C 80 % 1010,9 hPa 0,0 l/m SW 0,00 h 150 W/m 14,8 km/h (3 Bft)
16.09.2010 18:00 14,0 C 81 % 1010,9 hPa 0,0 l/m SW 0,00 h 65 W/m 12,6 km/h (3 Bft)
16.09.2010 19:00 12,8 C 85 % 1010,9 hPa 0,0 l/m W-SW 0,00 h 13 W/m 9,5 km/h (2 Bft)
16.09.2010 20:00 12,1 C 88 % 1011,1 hPa 0,0 l/m W-SW 0,00 h 0 W/m 8,3 km/h (2 Bft)
16.09.2010 21:00 11,8 C 89 % 1011,5 hPa 0,0 l/m W-SW 0,00 h 0 W/m 9,7 km/h (2 Bft)
16.09.2010 22:00 11,9 C 88 % 1011,5 hPa 0,0 l/m W 0,00 h 0 W/m 9,1 km/h (2 Bft)
16.09.2010 23:00 11,7 C 88 % 1011,4 hPa 0,0 l/m SW 0,00 h 0 W/m 7,2 km/h (2 Bft)
17.09.2010 00:00 11,1 C 93 % 1011,4 hPa 0,0 l/m SW 0,00 h 0 W/m 6,0 km/h (2 Bft)
17.09.2010 01:00 11,3 C 91 % 1011,4 hPa 0,0 l/m SW 0,00 h 0 W/m 6,5 km/h (2 Bft)
17.09.2010 02:00 10,5 C 93 % 1011,3 hPa 0,0 l/m N 0,00 h 0 W/m 0,1 km/h (0 Bft)
17.09.2010 03:00 10,4 C 94 % 1011,2 hPa 0,0 l/m W-SW 0,00 h 0 W/m 7,8 km/h (2 Bft)
17.09.2010 04:00 10,7 C 90 % 1011,0 hPa 0,0 l/m W-SW 0,00 h 0 W/m 9,9 km/h (2 Bft)
17.09.2010 05:00 10,0 C 92 % 1011,1 hPa 0,0 l/m W 0,00 h 0 W/m 4,9 km/h (1 Bft)
17.09.2010 06:00 10,0 C 91 % 1011,6 hPa 0,0 l/m W-SW 0,00 h 0 W/m 5,3 km/h (1 Bft)
17.09.2010 07:00 10,0 C 90 % 1012,1 hPa 0,0 l/m W-SW 0,00 h 16 W/m 7,5 km/h (2 Bft)
17.09.2010 08:00 10,6 C 89 % 1012,5 hPa 0,0 l/m S-SW 0,00 h 77 W/m 3,3 km/h (1 Bft)
17.09.2010 09:00 11,5 C 86 % 1012,9 hPa 0,0 l/m W-SW 0,08 h 189 W/m 6,0 km/h (2 Bft)
17.09.2010 10:00 12,5 C 82 % 1013,2 hPa 0,0 l/m S-SW 0,50 h 291 W/m 11,3 km/h (2 Bft)
17.09.2010 11:00 14,4 C 69 % 1013,2 hPa 0,0 l/m W 0,75 h 471 W/m 14,4 km/h (3 Bft)
17.09.2010 12:00 14,8 C 68 % 1013,1 hPa 0,0 l/m W-NW 0,42 h 366 W/m 12,0 km/h (2 Bft)
17.09.2010 13:00 15,5 C 61 % 1013,0 hPa 0,0 l/m W-NW 0,42 h 485 W/m 13,8 km/h (3 Bft)
17.09.2010 14:00 15,6 C 60 % 1013,0 hPa 0,0 l/m W 0,33 h 356 W/m 9,8 km/h (2 Bft)
17.09.2010 15:00 16,1 C 58 % 1012,7 hPa 0,0 l/m W 0,42 h 427 W/m 8,2 km/h (2 Bft)
17.09.2010 16:00 15,3 C 60 % 1012,9 hPa 0,0 l/m NW 0,17 h 216 W/m 5,2 km/h (1 Bft)
17.09.2010 17:00 14,9 C 60 % 1012,9 hPa 0,0 l/m N-NO 0,08 h 89 W/m 5,6 km/h (1 Bft)
17.09.2010 18:00 13,9 C 75 % 1013,2 hPa 0,0 l/m N 0,00 h 43 W/m 0,4 km/h (0 Bft)
17.09.2010 19:00 12,7 C 82 % 1013,7 hPa 0,0 l/m N 0,00 h 8 W/m 0,3 km/h (0 Bft)
17.09.2010 20:00 11,0 C 87 % 1014,2 hPa 0,0 l/m N 0,00 h 0 W/m 0,9 km/h (0 Bft)
17.09.2010 21:00 10,0 C 90 % 1015,0 hPa 0,0 l/m N-NO 0,00 h 0 W/m 2,4 km/h (1 Bft)
17.09.2010 22:00 9,0 C 91 % 1015,4 hPa 0,0 l/m N 0,00 h 0 W/m 1,2 km/h (1 Bft)
17.09.2010 23:00 8,3 C 93 % 1015,6 hPa 0,0 l/m N-NO 0,00 h 0 W/m 1,7 km/h (1 Bft)
18.09.2010 00:00 8,5 C 90 % 1015,6 hPa 0,0 l/m N-NW 0,00 h 0 W/m 5,1 km/h (1 Bft)
18.09.2010 01:00 8,0 C 90 % 1015,6 hPa 0,0 l/m N-NW 0,00 h 0 W/m 4,4 km/h (1 Bft)
18.09.2010 02:00 7,1 C 92 % 1015,8 hPa 0,0 l/m N 0,00 h 0 W/m 0,5 km/h (0 Bft)
18.09.2010 03:00 7,1 C 94 % 1015,6 hPa 0,0 l/m N 0,00 h 0 W/m 1,7 km/h (1 Bft)
18.09.2010 04:00 6,6 C 94 % 1015,6 hPa 0,0 l/m N-NW 0,00 h 0 W/m 1,3 km/h (1 Bft)
18.09.2010 05:00 6,3 C 95 % 1015,7 hPa 0,0 l/m N-NW 0,00 h 0 W/m 6,4 km/h (2 Bft)
18.09.2010 06:00 5,5 C 95 % 1015,7 hPa 0,0 l/m N 0,00 h 0 W/m 0,5 km/h (0 Bft)
18.09.2010 07:00 5,0 C 96 % 1016,1 hPa 0,0 l/m N-NW 0,00 h 25 W/m 1,6 km/h (1 Bft)
18.09.2010 08:00 6,3 C 95 % 1016,5 hPa 0,0 l/m N 0,33 h 113 W/m 3,1 km/h (1 Bft)
18.09.2010 09:00 9,3 C 85 % 1016,6 hPa 0,0 l/m O 1,00 h 351 W/m 6,2 km/h (2 Bft)
18.09.2010 10:00 11,7 C 75 % 1016,7 hPa 0,0 l/m NO 1,00 h 480 W/m 11,6 km/h (2 Bft)
18.09.2010 11:00 13,3 C 68 % 1016,3 hPa 0,0 l/m O-NO 1,00 h 608 W/m 11,5 km/h (2 Bft)
18.09.2010 12:00 14,5 C 64 % 1015,8 hPa 0,0 l/m O-SO 0,83 h 596 W/m 12,6 km/h (3 Bft)
18.09.2010 13:00 15,2 C 59 % 1015,5 hPa 0,0 l/m O-NO 0,92 h 652 W/m 11,5 km/h (2 Bft)
18.09.2010 14:00 15,2 C 57 % 1015,0 hPa 0,0 l/m N-NO 0,58 h 388 W/m 9,8 km/h (2 Bft)
18.09.2010 15:00 15,4 C 55 % 1014,7 hPa 0,0 l/m N 0,75 h 401 W/m 10,3 km/h (2 Bft)
18.09.2010 16:00 15,0 C 57 % 1014,8 hPa 0,0 l/m O 0,42 h 220 W/m 9,6 km/h (2 Bft)
18.09.2010 17:00 14,5 C 59 % 1014,8 hPa 0,0 l/m NO 0,17 h 144 W/m 10,1 km/h (2 Bft)
18.09.2010 18:00 13,4 C 67 % 1015,1 hPa 0,0 l/m N-NO 0,00 h 56 W/m 7,8 km/h (2 Bft)
18.09.2010 19:00 12,0 C 74 % 1015,5 hPa 0,0 l/m N-NO 0,08 h 13 W/m 5,3 km/h (1 Bft)
18.09.2010 20:00 9,9 C 83 % 1016,1 hPa 0,0 l/m N 0,00 h 0 W/m 3,6 km/h (1 Bft)
18.09.2010 21:00 8,8 C 86 % 1016,6 hPa 0,0 l/m N 0,00 h 0 W/m 2,4 km/h (1 Bft)
18.09.2010 22:00 8,0 C 87 % 1016,8 hPa 0,0 l/m N 0,00 h 0 W/m 2,1 km/h (1 Bft)
18.09.2010 23:00 7,6 C 89 % 1017,0 hPa 0,0 l/m N 0,00 h 0 W/m 3,5 km/h (1 Bft)
19.09.2010 00:00 7,3 C 90 % 1017,0 hPa 0,0 l/m N-NW 0,00 h 0 W/m 4,5 km/h (1 Bft)
19.09.2010 01:00 7,5 C 89 % 1016,7 hPa 0,0 l/m N 0,00 h 0 W/m 1,6 km/h (1 Bft)
19.09.2010 02:00 6,5 C 91 % 1016,8 hPa 0,0 l/m N-NW 0,00 h 0 W/m 3,6 km/h (1 Bft)
19.09.2010 03:00 6,6 C 92 % 1016,9 hPa 0,0 l/m N-NW 0,00 h 0 W/m 4,1 km/h (1 Bft)
19.09.2010 04:00 6,5 C 92 % 1016,9 hPa 0,0 l/m N-NW 0,00 h 0 W/m 2,3 km/h (1 Bft)
19.09.2010 05:00 6,2 C 93 % 1017,1 hPa 0,0 l/m N-NW 0,00 h 0 W/m 5,3 km/h (1 Bft)
19.09.2010 06:00 5,9 C 93 % 1017,3 hPa 0,0 l/m N 0,00 h 0 W/m 1,7 km/h (1 Bft)
19.09.2010 07:00 5,3 C 95 % 1017,5 hPa 0,0 l/m N 0,00 h 23 W/m 1,6 km/h (1 Bft)
19.09.2010 08:00 6,8 C 92 % 1018,1 hPa 0,0 l/m N-NW 0,33 h 108 W/m 4,9 km/h (1 Bft)
19.09.2010 09:00 9,3 C 82 % 1018,4 hPa 0,0 l/m SO 1,00 h 347 W/m 4,4 km/h (1 Bft)
19.09.2010 10:00 11,5 C 73 % 1018,7 hPa 0,0 l/m O-NO 0,92 h 434 W/m 6,1 km/h (2 Bft)
19.09.2010 11:00 13,0 C 63 % 1018,6 hPa 0,0 l/m O 1,00 h 578 W/m 6,9 km/h (2 Bft)
19.09.2010 12:00 14,3 C 58 % 1018,3 hPa 0,0 l/m SO 1,00 h 703 W/m 6,8 km/h (2 Bft)
19.09.2010 13:00 14,4 C 58 % 1017,9 hPa 0,0 l/m W-NW 0,42 h 365 W/m 6,3 km/h (2 Bft)
19.09.2010 14:00 13,8 C 59 % 1017,1 hPa 0,0 l/m N 0,00 h 172 W/m 0,0 km/h (0 Bft)
19.09.2010 15:00 13,8 C 59 % 1016,4 hPa 0,0 l/m N 0,00 h 172 W/m 0,0 km/h (0 Bft)
19.09.2010 16:00 13,8 C 59 % 1016,5 hPa 0,0 l/m N 0,00 h 172 W/m 0,0 km/h (0 Bft)
19.09.2010 17:00 15,7 C 54 % 1017,1 hPa 0,0 l/m SW 0,50 h 153 W/m 2,5 km/h (1 Bft)
19.09.2010 18:00 14,3 C 66 % 1017,3 hPa 0,0 l/m N 0,00 h 27 W/m 2,1 km/h (1 Bft)
19.09.2010 19:00 11,0 C 83 % 1017,5 hPa 0,0 l/m N 0,00 h 7 W/m 0,5 km/h (0 Bft)
19.09.2010 20:00 9,3 C 88 % 1018,3 hPa 0,0 l/m N 0,00 h 0 W/m 0,0 km/h (0 Bft)
19.09.2010 21:00 8,4 C 91 % 1018,6 hPa 0,0 l/m N 0,00 h 0 W/m 0,0 km/h (0 Bft)
19.09.2010 22:00 7,9 C 93 % 1018,8 hPa 0,0 l/m N 0,00 h 0 W/m 0,3 km/h (0 Bft)
19.09.2010 23:00 7,0 C 95 % 1018,8 hPa 0,0 l/m N 0,00 h 0 W/m 0,1 km/h (0 Bft)
Min-Datum _ 18.09.10 19.09.10 16.09.10 - - - - 13.09.10
_ Min-Zeit 07:20 17:55 16:15 - - - - 16:25
Minimum _ 4,7 C 49 % 1010,7 hPa - - - - 0,0 km/h (0 Bft)
Max-Datum _ 14.09.10 14.09.10 13.09.10 13.09.10 - 19.09.10 18.09.10 15.09.10
_ Max-Zeit 16:05 08:50 23:25 00:15 - 17:35 13:30 10:00
Maximum _ 17,4 C 100 % 1027,0 hPa 4,8 l/m - 0,33 h 863 W/m 35,4 km/h
W-SW (5 Bft)
Durchschnitt _ 11,7 C 84 % 1017,1 hPa #8,2 l/m SW #25:25 h 211 W/m 8,3 km/h (2 Bft)